Terminal Aerodrome Forecast
Issued by NWS Upton, NY

Home | Current Version | Previous Version | Text Only | Print | Product List | Glossary On
Versions: 1 2 3 4 5 6 7 8 9 10 11 12 13 14 15 16 17 18 19 20 21 22 23 24 25 26 27 28 29
000
FTUS41 KOKX 040230 AAB
TAFJFK
TAF AMD
KJFK 040230Z 0403/0506 21010KT P6SM SCT050 BKN100
      TEMPO 0407/0410 3SM TSRA SCT030CB BKN050
     FM041000 25012KT P6SM SCT050 SCT100
     FM041600 22015G23KT P6SM BKN050
     FM042000 20018G28KT P6SM BKN050
     FM050200 26009KT P6SM SCT050 SCT100=

USA.gov is the U.S. government's official web portal to all federal, state and local government web resources and services.